sensor_id;sensor_type;location;lat;lon;timestamp;P1;durP1;ratioP1;P2;durP2;ratioP2
47912;SDS011;33676;51.006;17.180;2022-09-01T00:00:07;4.30;;;3.00;;
47912;SDS011;33676;51.006;17.180;2022-09-01T00:02:59;4.00;;;3.50;;
47912;SDS011;33676;51.006;17.180;2022-09-01T00:05:28;4.50;;;3.50;;
47912;SDS011;33676;51.006;17.180;2022-09-01T00:07:59;3.60;;;3.30;;
47912;SDS011;33676;51.006;17.180;2022-09-01T00:10:28;3.90;;;3.00;;
47912;SDS011;33676;51.006;17.180;2022-09-01T00:12:57;3.70;;;3.40;;
47912;SDS011;33676;51.006;17.180;2022-09-01T00:15:26;3.60;;;3.30;;
47912;SDS011;33676;51.006;17.180;2022-09-01T00:17:54;8.00;;;3.40;;
47912;SDS011;33676;51.006;17.180;2022-09-01T00:20:23;4.40;;;4.00;;
47912;SDS011;33676;51.006;17.180;2022-09-01T00:22:51;5.90;;;3.80;;
47912;SDS011;33676;51.006;17.180;2022-09-01T00:25:20;4.80;;;3.50;;
47912;SDS011;33676;51.006;17.180;2022-09-01T00:27:51;4.60;;;3.40;;
47912;SDS011;33676;51.006;17.180;2022-09-01T00:30:20;3.70;;;3.40;;
47912;SDS011;33676;51.006;17.180;2022-09-01T00:32:49;3.90;;;2.90;;
47912;SDS011;33676;51.006;17.180;2022-09-01T00:35:18;5.20;;;3.20;;
47912;SDS011;33676;51.006;17.180;2022-09-01T00:37:47;4.10;;;3.70;;
47912;SDS011;33676;51.006;17.180;2022-09-01T00:40:16;3.40;;;3.10;;
47912;SDS011;33676;51.006;17.180;2022-09-01T00:42:46;3.00;;;2.70;;
47912;SDS011;33676;51.006;17.180;2022-09-01T00:45:15;4.00;;;3.50;;
47912;SDS011;33676;51.006;17.180;2022-09-01T00:47:44;3.40;;;2.70;;
47912;SDS011;33676;51.006;17.180;2022-09-01T00:50:14;3.20;;;2.80;;
47912;SDS011;33676;51.006;17.180;2022-09-01T00:52:51;4.50;;;3.20;;
47912;SDS011;33676;51.006;17.180;2022-09-01T00:55:29;3.70;;;3.40;;
47912;SDS011;33676;51.006;17.180;2022-09-01T00:58:00;3.80;;;2.70;;
47912;SDS011;33676;51.006;17.180;2022-09-01T01:00:32;3.90;;;3.30;;
47912;SDS011;33676;51.006;17.180;2022-09-01T01:03:10;3.70;;;3.40;;
47912;SDS011;33676;51.006;17.180;2022-09-01T01:05:51;3.70;;;3.20;;
47912;SDS011;33676;51.006;17.180;2022-09-01T01:08:27;3.80;;;3.40;;
47912;SDS011;33676;51.006;17.180;2022-09-01T01:11:13;3.30;;;3.00;;
47912;SDS011;33676;51.006;17.180;2022-09-01T01:14:06;3.80;;;3.40;;
47912;SDS011;33676;51.006;17.180;2022-09-01T01:16:40;4.90;;;4.40;;
47912;SDS011;33676;51.006;17.180;2022-09-01T01:25:40;5.80;;;3.30;;
47912;SDS011;33676;51.006;17.180;2022-09-01T01:28:13;3.20;;;2.70;;
47912;SDS011;33676;51.006;17.180;2022-09-01T01:30:47;4.10;;;3.70;;
47912;SDS011;33676;51.006;17.180;2022-09-01T01:33:22;3.80;;;3.50;;
47912;SDS011;33676;51.006;17.180;2022-09-01T01:35:53;4.40;;;3.00;;
47912;SDS011;33676;51.006;17.180;2022-09-01T01:38:25;3.40;;;3.10;;
47912;SDS011;33676;51.006;17.180;2022-09-01T01:40:54;4.30;;;3.40;;
47912;SDS011;33676;51.006;17.180;2022-09-01T01:43:23;4.20;;;3.60;;
47912;SDS011;33676;51.006;17.180;2022-09-01T01:45:55;3.50;;;2.70;;
47912;SDS011;33676;51.006;17.180;2022-09-01T01:48:30;3.60;;;3.20;;
47912;SDS011;33676;51.006;17.180;2022-09-01T01:51:02;4.10;;;3.10;;
47912;SDS011;33676;51.006;17.180;2022-09-01T01:53:33;3.90;;;3.50;;
47912;SDS011;33676;51.006;17.180;2022-09-01T01:56:01;2.90;;;2.50;;
47912;SDS011;33676;51.006;17.180;2022-09-01T01:58:30;3.50;;;3.10;;
47912;SDS011;33676;51.006;17.180;2022-09-01T02:01:01;3.60;;;3.30;;
47912;SDS011;33676;51.006;17.180;2022-09-01T02:03:32;3.50;;;2.80;;
47912;SDS011;33676;51.006;17.180;2022-09-01T02:06:09;2.90;;;2.50;;
47912;SDS011;33676;51.006;17.180;2022-09-01T02:08:39;2.70;;;2.50;;
47912;SDS011;33676;51.006;17.180;2022-09-01T02:11:08;3.70;;;3.30;;
47912;SDS011;33676;51.006;17.180;2022-09-01T02:13:36;3.30;;;3.00;;
47912;SDS011;33676;51.006;17.180;2022-09-01T02:16:06;3.70;;;3.10;;
47912;SDS011;33676;51.006;17.180;2022-09-01T02:18:43;2.90;;;2.70;;
47912;SDS011;33676;51.006;17.180;2022-09-01T02:21:18;2.60;;;2.40;;
47912;SDS011;33676;51.006;17.180;2022-09-01T02:23:51;5.30;;;2.40;;
47912;SDS011;33676;51.006;17.180;2022-09-01T02:26:35;2.50;;;2.30;;
47912;SDS011;33676;51.006;17.180;2022-09-01T02:29:14;3.80;;;3.00;;
47912;SDS011;33676;51.006;17.180;2022-09-01T02:31:50;3.40;;;2.60;;
47912;SDS011;33676;51.006;17.180;2022-09-01T02:34:21;3.00;;;2.40;;
47912;SDS011;33676;51.006;17.180;2022-09-01T02:36:52;4.20;;;3.00;;
47912;SDS011;33676;51.006;17.180;2022-09-01T02:39:26;4.50;;;2.20;;
47912;SDS011;33676;51.006;17.180;2022-09-01T02:41:56;2.70;;;2.50;;
47912;SDS011;33676;51.006;17.180;2022-09-01T02:44:26;2.30;;;2.10;;
47912;SDS011;33676;51.006;17.180;2022-09-01T02:46:56;3.00;;;2.60;;
47912;SDS011;33676;51.006;17.180;2022-09-01T02:49:25;4.10;;;3.10;;
47912;SDS011;33676;51.006;17.180;2022-09-01T02:51:57;3.60;;;2.30;;
47912;SDS011;33676;51.006;17.180;2022-09-01T02:54:30;3.70;;;2.50;;
47912;SDS011;33676;51.006;17.180;2022-09-01T02:56:59;3.10;;;2.80;;
47912;SDS011;33676;51.006;17.180;2022-09-01T02:59:28;3.60;;;3.20;;
47912;SDS011;33676;51.006;17.180;2022-09-01T03:01:58;3.30;;;3.00;;
47912;SDS011;33676;51.006;17.180;2022-09-01T03:04:26;3.50;;;3.20;;
47912;SDS011;33676;51.006;17.180;2022-09-01T03:06:55;3.50;;;2.90;;
47912;SDS011;33676;51.006;17.180;2022-09-01T03:09:26;2.70;;;2.30;;
47912;SDS011;33676;51.006;17.180;2022-09-01T03:11:55;3.00;;;2.80;;
47912;SDS011;33676;51.006;17.180;2022-09-01T03:14:23;4.70;;;3.60;;
47912;SDS011;33676;51.006;17.180;2022-09-01T03:16:53;3.00;;;2.60;;
47912;SDS011;33676;51.006;17.180;2022-09-01T03:19:21;3.90;;;2.30;;
47912;SDS011;33676;51.006;17.180;2022-09-01T03:21:50;2.80;;;2.50;;
47912;SDS011;33676;51.006;17.180;2022-09-01T03:24:18;2.70;;;2.30;;
47912;SDS011;33676;51.006;17.180;2022-09-01T03:26:47;3.50;;;2.30;;
47912;SDS011;33676;51.006;17.180;2022-09-01T03:29:18;2.90;;;2.60;;
47912;SDS011;33676;51.006;17.180;2022-09-01T03:31:47;2.70;;;2.30;;
47912;SDS011;33676;51.006;17.180;2022-09-01T03:34:16;3.10;;;2.80;;
47912;SDS011;33676;51.006;17.180;2022-09-01T03:36:48;3.80;;;2.50;;
47912;SDS011;33676;51.006;17.180;2022-09-01T03:39:18;4.40;;;2.80;;
47912;SDS011;33676;51.006;17.180;2022-09-01T03:41:46;3.90;;;3.60;;
47912;SDS011;33676;51.006;17.180;2022-09-01T03:44:15;2.80;;;2.60;;
47912;SDS011;33676;51.006;17.180;2022-09-01T03:46:44;3.70;;;2.50;;
47912;SDS011;33676;51.006;17.180;2022-09-01T03:49:14;2.80;;;2.50;;
47912;SDS011;33676;51.006;17.180;2022-09-01T03:51:53;3.50;;;2.60;;
47912;SDS011;33676;51.006;17.180;2022-09-01T03:54:21;2.80;;;2.40;;
47912;SDS011;33676;51.006;17.180;2022-09-01T03:56:57;3.00;;;2.80;;
47912;SDS011;33676;51.006;17.180;2022-09-01T03:59:27;2.60;;;2.50;;
47912;SDS011;33676;51.006;17.180;2022-09-01T04:01:58;3.00;;;2.50;;
47912;SDS011;33676;51.006;17.180;2022-09-01T04:04:28;3.70;;;3.30;;
47912;SDS011;33676;51.006;17.180;2022-09-01T04:07:00;3.40;;;2.20;;
47912;SDS011;33676;51.006;17.180;2022-09-01T04:09:28;5.00;;;2.80;;
47912;SDS011;33676;51.006;17.180;2022-09-01T04:11:56;3.40;;;2.90;;
47912;SDS011;33676;51.006;17.180;2022-09-01T04:14:25;4.40;;;2.80;;
47912;SDS011;33676;51.006;17.180;2022-09-01T04:16:56;2.60;;;2.40;;
47912;SDS011;33676;51.006;17.180;2022-09-01T04:19:44;3.00;;;2.70;;
47912;SDS011;33676;51.006;17.180;2022-09-01T04:22:12;2.60;;;2.40;;
47912;SDS011;33676;51.006;17.180;2022-09-01T04:24:42;2.70;;;2.50;;
47912;SDS011;33676;51.006;17.180;2022-09-01T04:27:14;4.70;;;2.40;;
47912;SDS011;33676;51.006;17.180;2022-09-01T04:29:45;4.40;;;3.00;;
47912;SDS011;33676;51.006;17.180;2022-09-01T04:32:15;4.70;;;3.10;;
47912;SDS011;33676;51.006;17.180;2022-09-01T04:34:43;3.80;;;2.70;;
47912;SDS011;33676;51.006;17.180;2022-09-01T04:37:15;3.40;;;2.50;;
47912;SDS011;33676;51.006;17.180;2022-09-01T04:39:50;3.10;;;2.80;;
47912;SDS011;33676;51.006;17.180;2022-09-01T04:42:26;3.70;;;3.40;;
47912;SDS011;33676;51.006;17.180;2022-09-01T04:44:56;2.70;;;2.40;;
47912;SDS011;33676;51.006;17.180;2022-09-01T04:47:30;2.40;;;2.20;;
47912;SDS011;33676;51.006;17.180;2022-09-01T04:50:04;4.10;;;2.80;;
47912;SDS011;33676;51.006;17.180;2022-09-01T04:52:45;2.50;;;2.30;;
47912;SDS011;33676;51.006;17.180;2022-09-01T04:55:14;5.10;;;2.80;;
47912;SDS011;33676;51.006;17.180;2022-09-01T04:57:47;3.90;;;2.60;;
47912;SDS011;33676;51.006;17.180;2022-09-01T05:00:19;6.50;;;3.30;;
47912;SDS011;33676;51.006;17.180;2022-09-01T05:02:52;3.50;;;2.90;;
47912;SDS011;33676;51.006;17.180;2022-09-01T05:05:50;2.70;;;2.30;;
47912;SDS011;33676;51.006;17.180;2022-09-01T05:08:21;2.80;;;2.50;;
47912;SDS011;33676;51.006;17.180;2022-09-01T05:10:52;2.90;;;2.70;;
47912;SDS011;33676;51.006;17.180;2022-09-01T05:13:24;4.20;;;3.20;;
47912;SDS011;33676;51.006;17.180;2022-09-01T05:16:05;6.70;;;2.70;;
47912;SDS011;33676;51.006;17.180;2022-09-01T05:18:41;2.50;;;2.30;;
47912;SDS011;33676;51.006;17.180;2022-09-01T05:21:17;2.80;;;2.60;;
47912;SDS011;33676;51.006;17.180;2022-09-01T05:23:49;3.70;;;2.40;;
47912;SDS011;33676;51.006;17.180;2022-09-01T05:26:27;2.60;;;2.10;;
47912;SDS011;33676;51.006;17.180;2022-09-01T05:29:06;3.10;;;2.80;;
47912;SDS011;33676;51.006;17.180;2022-09-01T05:31:41;4.40;;;2.40;;
47912;SDS011;33676;51.006;17.180;2022-09-01T05:34:14;4.10;;;2.30;;
47912;SDS011;33676;51.006;17.180;2022-09-01T05:36:47;5.00;;;3.10;;
47912;SDS011;33676;51.006;17.180;2022-09-01T05:39:18;5.70;;;2.70;;
47912;SDS011;33676;51.006;17.180;2022-09-01T05:41:47;4.10;;;2.60;;
47912;SDS011;33676;51.006;17.180;2022-09-01T05:44:16;3.30;;;2.50;;
47912;SDS011;33676;51.006;17.180;2022-09-01T05:46:45;2.70;;;2.50;;
47912;SDS011;33676;51.006;17.180;2022-09-01T05:49:15;2.80;;;2.50;;
47912;SDS011;33676;51.006;17.180;2022-09-01T05:51:48;3.80;;;2.60;;
47912;SDS011;33676;51.006;17.180;2022-09-01T05:54:20;3.40;;;3.00;;
47912;SDS011;33676;51.006;17.180;2022-09-01T05:56:53;4.40;;;3.10;;
47912;SDS011;33676;51.006;17.180;2022-09-01T05:59:45;3.80;;;2.60;;
47912;SDS011;33676;51.006;17.180;2022-09-01T06:02:22;4.70;;;2.50;;
47912;SDS011;33676;51.006;17.180;2022-09-01T06:04:53;4.20;;;3.00;;
47912;SDS011;33676;51.006;17.180;2022-09-01T06:07:23;4.10;;;2.50;;
47912;SDS011;33676;51.006;17.180;2022-09-01T06:09:55;4.30;;;3.10;;
47912;SDS011;33676;51.006;17.180;2022-09-01T06:12:24;3.10;;;2.70;;
47912;SDS011;33676;51.006;17.180;2022-09-01T06:14:56;3.40;;;2.40;;
47912;SDS011;33676;51.006;17.180;2022-09-01T06:17:26;3.90;;;2.50;;
47912;SDS011;33676;51.006;17.180;2022-09-01T06:19:57;2.40;;;2.20;;
47912;SDS011;33676;51.006;17.180;2022-09-01T06:22:40;5.10;;;2.60;;
47912;SDS011;33676;51.006;17.180;2022-09-01T06:25:09;5.30;;;2.50;;
47912;SDS011;33676;51.006;17.180;2022-09-01T06:27:37;4.20;;;2.50;;
47912;SDS011;33676;51.006;17.180;2022-09-01T06:30:10;3.20;;;2.60;;
47912;SDS011;33676;51.006;17.180;2022-09-01T06:32:49;5.60;;;2.70;;
47912;SDS011;33676;51.006;17.180;2022-09-01T06:35:20;3.80;;;2.70;;
47912;SDS011;33676;51.006;17.180;2022-09-01T06:37:52;2.10;;;1.90;;
47912;SDS011;33676;51.006;17.180;2022-09-01T06:40:26;2.70;;;2.10;;
47912;SDS011;33676;51.006;17.180;2022-09-01T06:43:03;4.20;;;2.50;;
47912;SDS011;33676;51.006;17.180;2022-09-01T06:45:40;2.00;;;1.80;;
47912;SDS011;33676;51.006;17.180;2022-09-01T06:48:12;4.40;;;2.60;;
47912;SDS011;33676;51.006;17.180;2022-09-01T06:50:43;2.40;;;2.10;;
47912;SDS011;33676;51.006;17.180;2022-09-01T06:53:34;3.10;;;2.30;;
47912;SDS011;33676;51.006;17.180;2022-09-01T06:56:02;2.80;;;2.50;;
47912;SDS011;33676;51.006;17.180;2022-09-01T06:58:35;2.30;;;2.10;;
47912;SDS011;33676;51.006;17.180;2022-09-01T07:01:10;4.00;;;2.10;;
47912;SDS011;33676;51.006;17.180;2022-09-01T07:03:47;4.60;;;2.20;;
47912;SDS011;33676;51.006;17.180;2022-09-01T07:09:37;2.30;;;1.90;;
47912;SDS011;33676;51.006;17.180;2022-09-01T07:12:30;2.60;;;1.80;;
47912;SDS011;33676;51.006;17.180;2022-09-01T07:15:07;2.10;;;2.00;;
47912;SDS011;33676;51.006;17.180;2022-09-01T07:20:31;2.30;;;1.50;;
47912;SDS011;33676;51.006;17.180;2022-09-01T07:23:42;3.40;;;1.80;;
47912;SDS011;33676;51.006;17.180;2022-09-01T07:26:39;2.40;;;2.00;;
47912;SDS011;33676;51.006;17.180;2022-09-01T07:29:15;2.10;;;2.00;;
47912;SDS011;33676;51.006;17.180;2022-09-01T07:32:09;2.20;;;2.00;;
47912;SDS011;33676;51.006;17.180;2022-09-01T07:35:05;2.00;;;1.80;;
47912;SDS011;33676;51.006;17.180;2022-09-01T07:37:39;1.90;;;1.70;;
47912;SDS011;33676;51.006;17.180;2022-09-01T07:40:31;2.50;;;1.90;;
47912;SDS011;33676;51.006;17.180;2022-09-01T07:43:25;1.80;;;1.00;;
47912;SDS011;33676;51.006;17.180;2022-09-01T07:46:02;1.60;;;1.50;;
47912;SDS011;33676;51.006;17.180;2022-09-01T07:48:53;3.50;;;2.30;;
47912;SDS011;33676;51.006;17.180;2022-09-01T07:51:43;1.80;;;1.30;;
47912;SDS011;33676;51.006;17.180;2022-09-01T07:54:12;2.30;;;1.40;;
47912;SDS011;33676;51.006;17.180;2022-09-01T07:56:41;1.30;;;1.20;;
47912;SDS011;33676;51.006;17.180;2022-09-01T07:59:09;2.00;;;1.30;;
47912;SDS011;33676;51.006;17.180;2022-09-01T08:01:42;2.80;;;1.60;;
47912;SDS011;33676;51.006;17.180;2022-09-01T08:04:11;1.20;;;1.10;;
47912;SDS011;33676;51.006;17.180;2022-09-01T08:06:40;1.00;;;1.00;;
47912;SDS011;33676;51.006;17.180;2022-09-01T08:09:09;1.00;;;1.00;;
47912;SDS011;33676;51.006;17.180;2022-09-01T08:11:57;0.90;;;0.90;;
47912;SDS011;33676;51.006;17.180;2022-09-01T08:14:29;1.10;;;1.10;;
47912;SDS011;33676;51.006;17.180;2022-09-01T08:17:01;2.90;;;1.10;;
47912;SDS011;33676;51.006;17.180;2022-09-01T08:19:50;1.40;;;1.30;;
47912;SDS011;33676;51.006;17.180;2022-09-01T08:22:20;1.00;;;1.00;;
47912;SDS011;33676;51.006;17.180;2022-09-01T08:24:51;5.50;;;2.00;;
47912;SDS011;33676;51.006;17.180;2022-09-01T08:27:20;1.20;;;1.10;;
47912;SDS011;33676;51.006;17.180;2022-09-01T08:29:48;1.60;;;1.50;;
47912;SDS011;33676;51.006;17.180;2022-09-01T08:32:16;1.80;;;1.10;;
47912;SDS011;33676;51.006;17.180;2022-09-01T08:34:45;1.00;;;1.00;;
47912;SDS011;33676;51.006;17.180;2022-09-01T08:37:13;1.20;;;0.70;;
47912;SDS011;33676;51.006;17.180;2022-09-01T08:39:42;4.10;;;1.20;;
47912;SDS011;33676;51.006;17.180;2022-09-01T08:45:10;0.90;;;0.80;;
47912;SDS011;33676;51.006;17.180;2022-09-01T08:47:48;1.40;;;1.10;;
47912;SDS011;33676;51.006;17.180;2022-09-01T08:50:42;4.40;;;1.20;;
47912;SDS011;33676;51.006;17.180;2022-09-01T08:53:35;2.30;;;1.10;;
47912;SDS011;33676;51.006;17.180;2022-09-01T08:56:10;1.80;;;1.00;;
47912;SDS011;33676;51.006;17.180;2022-09-01T08:58:41;1.20;;;0.90;;
47912;SDS011;33676;51.006;17.180;2022-09-01T09:01:24;0.90;;;0.90;;
47912;SDS011;33676;51.006;17.180;2022-09-01T09:11:15;1.00;;;1.00;;
47912;SDS011;33676;51.006;17.180;2022-09-01T09:16:48;1.10;;;1.10;;
47912;SDS011;33676;51.006;17.180;2022-09-01T09:19:32;2.30;;;0.90;;
47912;SDS011;33676;51.006;17.180;2022-09-01T09:22:05;1.20;;;1.20;;
47912;SDS011;33676;51.006;17.180;2022-09-01T09:25:11;1.10;;;0.60;;
47912;SDS011;33676;51.006;17.180;2022-09-01T09:27:48;3.90;;;1.10;;
47912;SDS011;33676;51.006;17.180;2022-09-01T09:30:29;0.80;;;0.80;;
47912;SDS011;33676;51.006;17.180;2022-09-01T09:33:06;1.30;;;1.20;;
47912;SDS011;33676;51.006;17.180;2022-09-01T09:36:23;1.20;;;1.10;;
47912;SDS011;33676;51.006;17.180;2022-09-01T09:39:10;2.20;;;0.70;;
47912;SDS011;33676;51.006;17.180;2022-09-01T09:41:41;1.20;;;0.90;;
47912;SDS011;33676;51.006;17.180;2022-09-01T09:44:29;0.80;;;0.80;;
47912;SDS011;33676;51.006;17.180;2022-09-01T09:46:59;0.80;;;0.70;;
47912;SDS011;33676;51.006;17.180;2022-09-01T09:49:32;2.50;;;0.80;;
47912;SDS011;33676;51.006;17.180;2022-09-01T09:52:15;2.10;;;1.00;;
47912;SDS011;33676;51.006;17.180;2022-09-01T09:57:29;0.90;;;0.90;;
47912;SDS011;33676;51.006;17.180;2022-09-01T10:02:59;1.60;;;1.30;;
47912;SDS011;33676;51.006;17.180;2022-09-01T10:05:48;0.80;;;0.80;;
47912;SDS011;33676;51.006;17.180;2022-09-01T10:10:55;1.80;;;1.00;;
47912;SDS011;33676;51.006;17.180;2022-09-01T10:13:27;0.90;;;0.90;;
47912;SDS011;33676;51.006;17.180;2022-09-01T10:16:06;3.10;;;1.30;;
47912;SDS011;33676;51.006;17.180;2022-09-01T10:18:41;2.60;;;1.00;;
47912;SDS011;33676;51.006;17.180;2022-09-01T10:24:01;2.60;;;1.10;;
47912;SDS011;33676;51.006;17.180;2022-09-01T10:26:53;1.20;;;1.20;;
47912;SDS011;33676;51.006;17.180;2022-09-01T10:29:27;4.20;;;1.00;;
47912;SDS011;33676;51.006;17.180;2022-09-01T10:32:28;1.10;;;1.00;;
47912;SDS011;33676;51.006;17.180;2022-09-01T10:35:13;1.20;;;1.10;;
47912;SDS011;33676;51.006;17.180;2022-09-01T10:37:46;2.20;;;1.00;;
47912;SDS011;33676;51.006;17.180;2022-09-01T10:42:59;3.60;;;1.30;;
47912;SDS011;33676;51.006;17.180;2022-09-01T10:48:43;1.90;;;0.90;;
47912;SDS011;33676;51.006;17.180;2022-09-01T10:53:58;1.10;;;1.00;;
47912;SDS011;33676;51.006;17.180;2022-09-01T10:56:45;2.60;;;1.10;;
47912;SDS011;33676;51.006;17.180;2022-09-01T11:07:31;0.60;;;0.60;;
47912;SDS011;33676;51.006;17.180;2022-09-01T11:36:03;1.30;;;1.00;;
47912;SDS011;33676;51.006;17.180;2022-09-01T11:38:46;0.70;;;0.70;;
47912;SDS011;33676;51.006;17.180;2022-09-01T11:41:45;1.60;;;0.70;;
47912;SDS011;33676;51.006;17.180;2022-09-01T11:47:07;0.80;;;0.60;;
47912;SDS011;33676;51.006;17.180;2022-09-01T11:49:51;0.80;;;0.70;;
47912;SDS011;33676;51.006;17.180;2022-09-01T11:52:26;1.00;;;0.70;;
47912;SDS011;33676;51.006;17.180;2022-09-01T11:54:58;0.70;;;0.50;;
47912;SDS011;33676;51.006;17.180;2022-09-01T11:57:34;0.60;;;0.60;;
47912;SDS011;33676;51.006;17.180;2022-09-01T12:00:10;0.70;;;0.70;;
47912;SDS011;33676;51.006;17.180;2022-09-01T12:02:51;0.80;;;0.80;;
47912;SDS011;33676;51.006;17.180;2022-09-01T12:07:59;1.30;;;0.80;;
47912;SDS011;33676;51.006;17.180;2022-09-01T12:10:36;0.60;;;0.60;;
47912;SDS011;33676;51.006;17.180;2022-09-01T12:15:43;1.20;;;0.60;;
47912;SDS011;33676;51.006;17.180;2022-09-01T12:18:36;0.60;;;0.60;;
47912;SDS011;33676;51.006;17.180;2022-09-01T12:21:24;2.70;;;1.00;;
47912;SDS011;33676;51.006;17.180;2022-09-01T12:26:46;0.80;;;0.80;;
47912;SDS011;33676;51.006;17.180;2022-09-01T12:29:17;0.50;;;0.50;;
47912;SDS011;33676;51.006;17.180;2022-09-01T12:31:48;1.40;;;0.70;;
47912;SDS011;33676;51.006;17.180;2022-09-01T12:34:43;0.50;;;0.50;;
47912;SDS011;33676;51.006;17.180;2022-09-01T12:37:26;0.60;;;0.60;;
47912;SDS011;33676;51.006;17.180;2022-09-01T12:39:56;0.50;;;0.50;;
47912;SDS011;33676;51.006;17.180;2022-09-01T12:42:28;0.70;;;0.70;;
47912;SDS011;33676;51.006;17.180;2022-09-01T12:45:11;0.60;;;0.60;;
47912;SDS011;33676;51.006;17.180;2022-09-01T12:52:48;2.00;;;0.60;;
47912;SDS011;33676;51.006;17.180;2022-09-01T12:58:22;0.60;;;0.60;;
47912;SDS011;33676;51.006;17.180;2022-09-01T13:00:59;0.80;;;0.70;;
47912;SDS011;33676;51.006;17.180;2022-09-01T13:04:19;0.90;;;0.80;;
47912;SDS011;33676;51.006;17.180;2022-09-01T13:06:50;0.60;;;0.60;;
47912;SDS011;33676;51.006;17.180;2022-09-01T13:09:19;1.00;;;0.70;;
47912;SDS011;33676;51.006;17.180;2022-09-01T13:11:48;1.40;;;0.70;;
47912;SDS011;33676;51.006;17.180;2022-09-01T13:14:34;2.20;;;1.30;;
47912;SDS011;33676;51.006;17.180;2022-09-01T13:17:02;1.20;;;0.90;;
47912;SDS011;33676;51.006;17.180;2022-09-01T13:19:31;1.20;;;0.70;;
47912;SDS011;33676;51.006;17.180;2022-09-01T13:21:59;0.60;;;0.60;;
47912;SDS011;33676;51.006;17.180;2022-09-01T13:24:28;3.20;;;0.80;;
47912;SDS011;33676;51.006;17.180;2022-09-01T13:26:58;1.30;;;0.90;;
47912;SDS011;33676;51.006;17.180;2022-09-01T13:29:47;2.00;;;0.60;;
47912;SDS011;33676;51.006;17.180;2022-09-01T13:32:18;1.30;;;1.00;;
47912;SDS011;33676;51.006;17.180;2022-09-01T13:34:51;0.60;;;0.60;;
47912;SDS011;33676;51.006;17.180;2022-09-01T13:37:20;0.60;;;0.60;;
47912;SDS011;33676;51.006;17.180;2022-09-01T13:39:50;0.70;;;0.70;;
47912;SDS011;33676;51.006;17.180;2022-09-01T13:42:18;1.50;;;0.60;;
47912;SDS011;33676;51.006;17.180;2022-09-01T13:44:47;6.00;;;1.80;;
47912;SDS011;33676;51.006;17.180;2022-09-01T13:47:21;0.80;;;0.80;;
47912;SDS011;33676;51.006;17.180;2022-09-01T13:49:57;0.80;;;0.70;;
47912;SDS011;33676;51.006;17.180;2022-09-01T13:52:40;2.00;;;1.10;;
47912;SDS011;33676;51.006;17.180;2022-09-01T13:55:13;0.80;;;0.80;;
47912;SDS011;33676;51.006;17.180;2022-09-01T13:57:44;0.90;;;0.70;;
47912;SDS011;33676;51.006;17.180;2022-09-01T14:00:14;0.80;;;0.70;;
47912;SDS011;33676;51.006;17.180;2022-09-01T14:02:47;0.80;;;0.80;;
47912;SDS011;33676;51.006;17.180;2022-09-01T14:05:19;3.30;;;1.00;;
47912;SDS011;33676;51.006;17.180;2022-09-01T14:07:50;0.90;;;0.70;;
47912;SDS011;33676;51.006;17.180;2022-09-01T14:10:21;1.20;;;0.60;;
47912;SDS011;33676;51.006;17.180;2022-09-01T14:12:51;0.60;;;0.60;;
47912;SDS011;33676;51.006;17.180;2022-09-01T14:15:20;1.30;;;0.70;;
47912;SDS011;33676;51.006;17.180;2022-09-01T14:17:55;1.50;;;0.80;;
47912;SDS011;33676;51.006;17.180;2022-09-01T14:20:32;1.00;;;1.00;;
47912;SDS011;33676;51.006;17.180;2022-09-01T14:23:05;2.70;;;0.80;;
47912;SDS011;33676;51.006;17.180;2022-09-01T14:25:36;0.70;;;0.70;;
47912;SDS011;33676;51.006;17.180;2022-09-01T14:28:10;2.40;;;1.00;;
47912;SDS011;33676;51.006;17.180;2022-09-01T14:30:40;0.70;;;0.70;;
47912;SDS011;33676;51.006;17.180;2022-09-01T14:33:12;0.70;;;0.70;;
47912;SDS011;33676;51.006;17.180;2022-09-01T14:35:44;0.70;;;0.70;;
47912;SDS011;33676;51.006;17.180;2022-09-01T14:40:46;1.80;;;0.70;;
47912;SDS011;33676;51.006;17.180;2022-09-01T14:43:16;3.40;;;1.10;;
47912;SDS011;33676;51.006;17.180;2022-09-01T14:45:45;1.40;;;0.80;;
47912;SDS011;33676;51.006;17.180;2022-09-01T14:48:15;0.80;;;0.80;;
47912;SDS011;33676;51.006;17.180;2022-09-01T14:50:47;2.10;;;0.70;;
47912;SDS011;33676;51.006;17.180;2022-09-01T14:53:17;0.70;;;0.70;;
47912;SDS011;33676;51.006;17.180;2022-09-01T14:55:46;0.90;;;0.90;;
47912;SDS011;33676;51.006;17.180;2022-09-01T14:58:19;0.80;;;0.80;;
47912;SDS011;33676;51.006;17.180;2022-09-01T15:00:48;0.90;;;0.90;;
47912;SDS011;33676;51.006;17.180;2022-09-01T15:03:17;0.90;;;0.90;;
47912;SDS011;33676;51.006;17.180;2022-09-01T15:05:50;0.50;;;0.50;;
47912;SDS011;33676;51.006;17.180;2022-09-01T15:08:20;0.60;;;0.60;;
47912;SDS011;33676;51.006;17.180;2022-09-01T15:10:50;0.80;;;0.80;;
47912;SDS011;33676;51.006;17.180;2022-09-01T15:13:18;0.90;;;0.80;;
47912;SDS011;33676;51.006;17.180;2022-09-01T15:15:47;1.90;;;0.80;;
47912;SDS011;33676;51.006;17.180;2022-09-01T15:18:15;0.80;;;0.80;;
47912;SDS011;33676;51.006;17.180;2022-09-01T15:20:48;1.70;;;0.70;;
47912;SDS011;33676;51.006;17.180;2022-09-01T15:23:20;0.80;;;0.80;;
47912;SDS011;33676;51.006;17.180;2022-09-01T15:28:21;0.80;;;0.80;;
47912;SDS011;33676;51.006;17.180;2022-09-01T15:30:51;1.70;;;1.20;;
47912;SDS011;33676;51.006;17.180;2022-09-01T15:33:32;0.70;;;0.70;;
47912;SDS011;33676;51.006;17.180;2022-09-01T15:36:00;1.00;;;1.00;;
47912;SDS011;33676;51.006;17.180;2022-09-01T15:38:28;0.90;;;0.90;;
47912;SDS011;33676;51.006;17.180;2022-09-01T15:40:58;1.50;;;0.90;;
47912;SDS011;33676;51.006;17.180;2022-09-01T15:43:28;1.20;;;1.00;;
47912;SDS011;33676;51.006;17.180;2022-09-01T15:45:57;1.40;;;0.80;;
47912;SDS011;33676;51.006;17.180;2022-09-01T15:48:32;1.20;;;1.20;;
47912;SDS011;33676;51.006;17.180;2022-09-01T15:51:42;1.20;;;1.10;;
47912;SDS011;33676;51.006;17.180;2022-09-01T15:54:17;0.90;;;0.90;;
47912;SDS011;33676;51.006;17.180;2022-09-01T15:56:49;1.10;;;1.10;;
47912;SDS011;33676;51.006;17.180;2022-09-01T15:59:18;1.00;;;1.00;;
47912;SDS011;33676;51.006;17.180;2022-09-01T16:01:47;1.20;;;0.90;;
47912;SDS011;33676;51.006;17.180;2022-09-01T16:04:15;1.10;;;1.10;;
47912;SDS011;33676;51.006;17.180;2022-09-01T16:06:49;1.00;;;0.90;;
47912;SDS011;33676;51.006;17.180;2022-09-01T16:09:19;1.20;;;1.10;;
47912;SDS011;33676;51.006;17.180;2022-09-01T16:11:48;1.60;;;1.50;;
47912;SDS011;33676;51.006;17.180;2022-09-01T16:14:16;0.90;;;0.80;;
47912;SDS011;33676;51.006;17.180;2022-09-01T16:17:02;2.00;;;0.80;;
47912;SDS011;33676;51.006;17.180;2022-09-01T16:20:07;0.80;;;0.80;;
47912;SDS011;33676;51.006;17.180;2022-09-01T16:22:54;1.10;;;1.10;;
47912;SDS011;33676;51.006;17.180;2022-09-01T16:26:16;1.60;;;1.00;;
47912;SDS011;33676;51.006;17.180;2022-09-01T16:28:54;2.30;;;1.20;;
47912;SDS011;33676;51.006;17.180;2022-09-01T16:31:31;1.20;;;1.10;;
47912;SDS011;33676;51.006;17.180;2022-09-01T16:34:02;1.20;;;0.90;;
47912;SDS011;33676;51.006;17.180;2022-09-01T16:36:48;3.10;;;0.90;;
47912;SDS011;33676;51.006;17.180;2022-09-01T16:39:30;1.10;;;1.10;;
47912;SDS011;33676;51.006;17.180;2022-09-01T16:42:32;0.90;;;0.90;;
47912;SDS011;33676;51.006;17.180;2022-09-01T16:45:52;0.90;;;0.90;;
47912;SDS011;33676;51.006;17.180;2022-09-01T16:48:35;1.50;;;1.00;;
47912;SDS011;33676;51.006;17.180;2022-09-01T17:00:22;0.80;;;0.80;;
47912;SDS011;33676;51.006;17.180;2022-09-01T17:03:18;0.80;;;0.80;;
47912;SDS011;33676;51.006;17.180;2022-09-01T17:06:17;0.90;;;0.90;;
47912;SDS011;33676;51.006;17.180;2022-09-01T17:09:04;0.60;;;0.60;;
47912;SDS011;33676;51.006;17.180;2022-09-01T17:11:40;1.50;;;0.80;;